sensor_id;sensor_type;location;lat;lon;timestamp;pressure;altitude;pressure_sealevel;temperature;humidity
55217;BME280;41086;46.736;15.666;2023-03-25T00:00:13;97873.91;;;11.64;100.00
55217;BME280;41086;46.736;15.666;2023-03-25T00:02:44;97856.00;;;11.57;100.00
55217;BME280;41086;46.736;15.666;2023-03-25T00:05:12;97856.00;;;11.57;100.00
55217;BME280;41086;46.736;15.666;2023-03-25T00:07:41;97847.31;;;11.54;100.00
55217;BME280;41086;46.736;15.666;2023-03-25T00:10:09;97835.91;;;11.43;100.00
55217;BME280;41086;46.736;15.666;2023-03-25T00:12:36;97830.19;;;11.26;100.00
55217;BME280;41086;46.736;15.666;2023-03-25T00:15:07;97842.75;;;11.13;100.00
55217;BME280;41086;46.736;15.666;2023-03-25T00:17:35;97827.47;;;10.94;100.00
55217;BME280;41086;46.736;15.666;2023-03-25T00:20:06;97852.19;;;10.95;100.00
55217;BME280;41086;46.736;15.666;2023-03-25T00:22:36;97844.72;;;10.89;100.00
55217;BME280;41086;46.736;15.666;2023-03-25T00:25:17;97839.66;;;10.74;100.00
55217;BME280;41086;46.736;15.666;2023-03-25T00:27:47;97849.41;;;10.85;100.00
55217;BME280;41086;46.736;15.666;2023-03-25T00:30:15;97850.63;;;10.81;100.00
55217;BME280;41086;46.736;15.666;2023-03-25T00:32:42;97851.81;;;10.77;100.00
55217;BME280;41086;46.736;15.666;2023-03-25T00:35:16;97861.94;;;10.72;100.00
55217;BME280;41086;46.736;15.666;2023-03-25T00:37:46;97878.09;;;10.80;100.00
55217;BME280;41086;46.736;15.666;2023-03-25T00:40:13;97893.28;;;10.78;100.00
55217;BME280;41086;46.736;15.666;2023-03-25T00:42:40;97906.31;;;10.70;100.00
55217;BME280;41086;46.736;15.666;2023-03-25T00:45:16;97894.38;;;10.64;100.00
55217;BME280;41086;46.736;15.666;2023-03-25T00:47:43;97888.94;;;10.54;100.00
55217;BME280;41086;46.736;15.666;2023-03-25T00:50:10;97887.38;;;10.52;100.00
55217;BME280;41086;46.736;15.666;2023-03-25T00:52:37;97886.16;;;10.45;100.00
55217;BME280;41086;46.736;15.666;2023-03-25T00:55:04;97879.66;;;10.37;100.00
55217;BME280;41086;46.736;15.666;2023-03-25T00:57:31;97881.69;;;10.34;100.00
55217;BME280;41086;46.736;15.666;2023-03-25T00:59:58;97866.75;;;10.33;100.00
55217;BME280;41086;46.736;15.666;2023-03-25T01:02:26;97859.38;;;10.25;100.00
55217;BME280;41086;46.736;15.666;2023-03-25T01:04:53;97865.09;;;10.32;100.00
55217;BME280;41086;46.736;15.666;2023-03-25T01:07:20;97853.41;;;10.34;100.00
55217;BME280;41086;46.736;15.666;2023-03-25T01:09:47;97840.41;;;10.42;100.00
55217;BME280;41086;46.736;15.666;2023-03-25T01:12:15;97819.09;;;10.44;100.00
55217;BME280;41086;46.736;15.666;2023-03-25T01:14:42;97799.94;;;10.40;100.00
55217;BME280;41086;46.736;15.666;2023-03-25T01:17:09;97777.53;;;10.33;100.00
55217;BME280;41086;46.736;15.666;2023-03-25T01:19:36;97776.94;;;10.30;100.00
55217;BME280;41086;46.736;15.666;2023-03-25T01:22:03;97773.69;;;10.26;100.00
55217;BME280;41086;46.736;15.666;2023-03-25T01:24:30;97779.91;;;10.25;100.00
55217;BME280;41086;46.736;15.666;2023-03-25T01:26:57;97783.34;;;10.27;100.00
55217;BME280;41086;46.736;15.666;2023-03-25T01:29:26;97782.47;;;10.27;100.00
55217;BME280;41086;46.736;15.666;2023-03-25T01:31:54;97781.84;;;10.23;100.00
55217;BME280;41086;46.736;15.666;2023-03-25T01:34:22;97741.41;;;9.98;100.00
55217;BME280;41086;46.736;15.666;2023-03-25T01:36:49;97771.97;;;10.14;100.00
55217;BME280;41086;46.736;15.666;2023-03-25T01:39:17;97769.22;;;10.15;100.00
55217;BME280;41086;46.736;15.666;2023-03-25T01:41:46;97759.72;;;10.13;100.00
55217;BME280;41086;46.736;15.666;2023-03-25T01:46:51;97766.78;;;10.12;100.00
55217;BME280;41086;46.736;15.666;2023-03-25T01:49:26;97776.19;;;10.16;100.00
55217;BME280;41086;46.736;15.666;2023-03-25T01:52:02;97770.91;;;10.16;100.00
55217;BME280;41086;46.736;15.666;2023-03-25T01:54:31;97771.97;;;10.25;100.00
55217;BME280;41086;46.736;15.666;2023-03-25T01:56:58;97775.59;;;10.24;100.00
55217;BME280;41086;46.736;15.666;2023-03-25T01:59:26;97786.78;;;10.16;100.00
55217;BME280;41086;46.736;15.666;2023-03-25T02:01:55;97786.44;;;10.10;100.00
55217;BME280;41086;46.736;15.666;2023-03-25T02:05:11;97783.06;;;10.19;100.00
55217;BME280;41086;46.736;15.666;2023-03-25T02:07:26;97778.34;;;10.23;100.00
55217;BME280;41086;46.736;15.666;2023-03-25T02:10:03;97762.16;;;10.27;100.00
55217;BME280;41086;46.736;15.666;2023-03-25T02:12:31;97760.91;;;10.31;100.00
55217;BME280;41086;46.736;15.666;2023-03-25T02:15:00;97755.63;;;10.31;100.00
55217;BME280;41086;46.736;15.666;2023-03-25T02:28:56;97731.28;;;10.15;100.00
55217;BME280;41086;46.736;15.666;2023-03-25T02:31:50;97726.00;;;10.15;100.00
55217;BME280;41086;46.736;15.666;2023-03-25T02:45:01;97731.06;;;10.07;100.00
55217;BME280;41086;46.736;15.666;2023-03-25T02:47:42;97729.13;;;10.09;100.00
55217;BME280;41086;46.736;15.666;2023-03-25T02:50:14;97746.59;;;10.11;100.00
55217;BME280;41086;46.736;15.666;2023-03-25T02:52:48;97741.63;;;10.07;100.00
55217;BME280;41086;46.736;15.666;2023-03-25T02:55:20;97748.41;;;10.11;100.00
55217;BME280;41086;46.736;15.666;2023-03-25T02:57:50;97745.50;;;10.14;100.00
55217;BME280;41086;46.736;15.666;2023-03-25T03:00:23;97745.59;;;10.12;100.00
55217;BME280;41086;46.736;15.666;2023-03-25T03:02:55;97747.31;;;10.02;100.00
55217;BME280;41086;46.736;15.666;2023-03-25T03:05:37;97777.16;;;10.15;100.00
55217;BME280;41086;46.736;15.666;2023-03-25T03:08:15;97791.28;;;10.27;100.00
55217;BME280;41086;46.736;15.666;2023-03-25T03:11:16;97803.19;;;10.33;100.00
55217;BME280;41086;46.736;15.666;2023-03-25T03:14:15;97811.72;;;10.36;100.00
55217;BME280;41086;46.736;15.666;2023-03-25T03:17:13;97828.34;;;10.50;100.00
55217;BME280;41086;46.736;15.666;2023-03-25T03:19:55;97843.06;;;10.65;100.00
55217;BME280;41086;46.736;15.666;2023-03-25T03:22:40;97844.47;;;10.92;100.00
55217;BME280;41086;46.736;15.666;2023-03-25T03:25:36;97843.38;;;10.94;100.00
55217;BME280;41086;46.736;15.666;2023-03-25T03:28:06;97849.88;;;11.01;100.00
55217;BME280;41086;46.736;15.666;2023-03-25T03:30:49;97840.25;;;11.00;100.00
55217;BME280;41086;46.736;15.666;2023-03-25T03:33:30;97847.22;;;11.01;100.00
55217;BME280;41086;46.736;15.666;2023-03-25T03:36:02;97838.78;;;10.96;100.00
55217;BME280;41086;46.736;15.666;2023-03-25T03:38:36;97846.28;;;11.02;100.00
55217;BME280;41086;46.736;15.666;2023-03-25T03:41:07;97842.75;;;11.02;100.00
55217;BME280;41086;46.736;15.666;2023-03-25T03:47:02;97845.06;;;10.95;100.00
55217;BME280;41086;46.736;15.666;2023-03-25T03:49:43;97852.75;;;11.09;100.00
55217;BME280;41086;46.736;15.666;2023-03-25T03:52:24;97865.06;;;11.11;100.00
55217;BME280;41086;46.736;15.666;2023-03-25T03:57:29;97873.59;;;11.14;100.00
55217;BME280;41086;46.736;15.666;2023-03-25T04:00:00;97873.59;;;11.14;100.00
55217;BME280;41086;46.736;15.666;2023-03-25T04:02:41;97888.06;;;11.10;100.00
55217;BME280;41086;46.736;15.666;2023-03-25T04:05:13;97878.44;;;11.09;100.00
55217;BME280;41086;46.736;15.666;2023-03-25T04:07:50;97876.00;;;11.17;100.00
55217;BME280;41086;46.736;15.666;2023-03-25T04:10:32;97893.47;;;11.20;100.00
55217;BME280;41086;46.736;15.666;2023-03-25T04:13:08;97887.34;;;11.19;100.00
55217;BME280;41086;46.736;15.666;2023-03-25T04:15:36;97873.25;;;11.19;100.00
55217;BME280;41086;46.736;15.666;2023-03-25T04:18:03;97869.25;;;11.24;100.00
55217;BME280;41086;46.736;15.666;2023-03-25T04:20:32;97880.28;;;11.41;100.00
55217;BME280;41086;46.736;15.666;2023-03-25T04:23:03;97887.69;;;11.15;100.00
55217;BME280;41086;46.736;15.666;2023-03-25T04:25:31;97887.72;;;10.92;100.00
55217;BME280;41086;46.736;15.666;2023-03-25T04:27:58;97904.72;;;10.67;100.00
55217;BME280;41086;46.736;15.666;2023-03-25T04:30:26;97902.31;;;10.75;100.00
55217;BME280;41086;46.736;15.666;2023-03-25T04:32:54;97904.72;;;10.78;100.00
55217;BME280;41086;46.736;15.666;2023-03-25T04:35:21;97910.63;;;10.71;100.00
55217;BME280;41086;46.736;15.666;2023-03-25T04:37:48;97914.09;;;10.60;100.00
55217;BME280;41086;46.736;15.666;2023-03-25T04:40:15;97922.88;;;10.49;100.00
55217;BME280;41086;46.736;15.666;2023-03-25T04:42:45;97912.03;;;10.30;100.00
55217;BME280;41086;46.736;15.666;2023-03-25T04:45:13;97920.81;;;10.30;100.00
55217;BME280;41086;46.736;15.666;2023-03-25T04:47:44;97926.50;;;10.37;100.00
55217;BME280;41086;46.736;15.666;2023-03-25T04:50:26;97931.56;;;10.40;100.00
55217;BME280;41086;46.736;15.666;2023-03-25T04:52:54;97927.94;;;10.41;100.00
55217;BME280;41086;46.736;15.666;2023-03-25T04:55:23;97927.34;;;10.49;100.00
55217;BME280;41086;46.736;15.666;2023-03-25T04:57:52;97931.81;;;10.48;100.00
55217;BME280;41086;46.736;15.666;2023-03-25T05:00:22;97934.56;;;10.58;100.00
55217;BME280;41086;46.736;15.666;2023-03-25T05:02:52;97935.19;;;10.61;100.00
55217;BME280;41086;46.736;15.666;2023-03-25T05:05:24;97904.94;;;10.41;100.00
55217;BME280;41086;46.736;15.666;2023-03-25T05:07:52;97925.47;;;10.27;100.00
55217;BME280;41086;46.736;15.666;2023-03-25T05:10:24;97911.72;;;10.10;100.00
55217;BME280;41086;46.736;15.666;2023-03-25T05:12:59;97907.59;;;10.06;100.00
55217;BME280;41086;46.736;15.666;2023-03-25T05:15:27;97903.84;;;9.97;100.00
55217;BME280;41086;46.736;15.666;2023-03-25T05:17:55;97911.28;;;9.92;100.00
55217;BME280;41086;46.736;15.666;2023-03-25T05:20:22;97906.44;;;9.86;100.00
55217;BME280;41086;46.736;15.666;2023-03-25T05:22:49;97893.75;;;9.67;100.00
55217;BME280;41086;46.736;15.666;2023-03-25T05:25:19;97896.13;;;9.59;100.00
55217;BME280;41086;46.736;15.666;2023-03-25T05:27:48;97850.34;;;9.22;100.00
55217;BME280;41086;46.736;15.666;2023-03-25T05:30:15;97881.34;;;9.20;100.00
55217;BME280;41086;46.736;15.666;2023-03-25T05:32:43;97873.25;;;9.10;100.00
55217;BME280;41086;46.736;15.666;2023-03-25T05:35:11;97862.94;;;8.94;100.00
55217;BME280;41086;46.736;15.666;2023-03-25T05:37:38;97853.66;;;8.88;100.00
55217;BME280;41086;46.736;15.666;2023-03-25T05:40:05;97855.47;;;8.88;100.00
55217;BME280;41086;46.736;15.666;2023-03-25T05:42:41;97852.09;;;8.73;100.00
55217;BME280;41086;46.736;15.666;2023-03-25T05:45:12;97854.75;;;8.73;100.00
55217;BME280;41086;46.736;15.666;2023-03-25T05:47:42;97844.25;;;8.84;100.00
55217;BME280;41086;46.736;15.666;2023-03-25T05:50:09;97834.09;;;8.91;100.00
55217;BME280;41086;46.736;15.666;2023-03-25T05:52:36;97843.38;;;8.97;100.00
55217;BME280;41086;46.736;15.666;2023-03-25T05:55:11;97850.84;;;9.03;100.00
55217;BME280;41086;46.736;15.666;2023-03-25T05:57:39;97846.91;;;9.08;100.00
55217;BME280;41086;46.736;15.666;2023-03-25T06:00:07;97830.31;;;9.06;100.00
55217;BME280;41086;46.736;15.666;2023-03-25T06:02:37;97855.66;;;9.22;100.00
55217;BME280;41086;46.736;15.666;2023-03-25T06:05:05;97871.75;;;9.19;100.00
55217;BME280;41086;46.736;15.666;2023-03-25T06:07:31;97883.47;;;9.15;100.00
55217;BME280;41086;46.736;15.666;2023-03-25T06:09:58;97882.28;;;9.31;100.00
55217;BME280;41086;46.736;15.666;2023-03-25T06:12:25;97871.53;;;9.46;100.00
55217;BME280;41086;46.736;15.666;2023-03-25T06:14:53;97877.59;;;9.59;100.00
55217;BME280;41086;46.736;15.666;2023-03-25T06:17:20;97877.63;;;9.70;100.00
55217;BME280;41086;46.736;15.666;2023-03-25T06:19:48;97863.84;;;9.78;100.00
55217;BME280;41086;46.736;15.666;2023-03-25T06:22:15;97867.72;;;9.85;100.00
55217;BME280;41086;46.736;15.666;2023-03-25T06:24:42;97873.28;;;9.93;100.00
55217;BME280;41086;46.736;15.666;2023-03-25T06:27:14;97873.38;;;9.92;100.00
55217;BME280;41086;46.736;15.666;2023-03-25T06:29:43;97866.28;;;9.92;100.00
55217;BME280;41086;46.736;15.666;2023-03-25T06:32:12;97861.25;;;10.01;100.00
55217;BME280;41086;46.736;15.666;2023-03-25T06:34:39;97865.84;;;10.10;100.00
55217;BME280;41086;46.736;15.666;2023-03-25T06:37:09;97868.50;;;10.10;100.00
55217;BME280;41086;46.736;15.666;2023-03-25T06:39:36;97882.34;;;10.13;100.00
55217;BME280;41086;46.736;15.666;2023-03-25T06:42:16;97887.97;;;10.09;100.00
55217;BME280;41086;46.736;15.666;2023-03-25T06:45:06;97904.47;;;10.12;100.00
55217;BME280;41086;46.736;15.666;2023-03-25T06:47:53;97920.34;;;10.12;100.00
55217;BME280;41086;46.736;15.666;2023-03-25T06:50:21;97920.81;;;10.06;100.00
55217;BME280;41086;46.736;15.666;2023-03-25T06:52:48;97909.88;;;9.99;100.00
55217;BME280;41086;46.736;15.666;2023-03-25T06:55:15;97932.38;;;10.05;100.00
55217;BME280;41086;46.736;15.666;2023-03-25T06:57:42;97939.25;;;10.08;100.00
55217;BME280;41086;46.736;15.666;2023-03-25T07:00:10;97933.78;;;9.98;100.00
55217;BME280;41086;46.736;15.666;2023-03-25T07:02:40;97950.78;;;10.07;100.00
55217;BME280;41086;46.736;15.666;2023-03-25T07:05:07;97960.31;;;10.09;100.00
55217;BME280;41086;46.736;15.666;2023-03-25T07:07:34;97959.38;;;10.10;100.00
55217;BME280;41086;46.736;15.666;2023-03-25T07:10:01;97960.19;;;10.11;100.00
55217;BME280;41086;46.736;15.666;2023-03-25T07:12:28;97968.00;;;10.12;100.00
55217;BME280;41086;46.736;15.666;2023-03-25T07:14:56;97976.81;;;10.13;100.00
55217;BME280;41086;46.736;15.666;2023-03-25T07:17:23;97967.19;;;10.12;100.00
55217;BME280;41086;46.736;15.666;2023-03-25T07:19:51;97974.22;;;10.24;100.00
55217;BME280;41086;46.736;15.666;2023-03-25T07:22:19;97987.16;;;10.29;100.00
55217;BME280;41086;46.736;15.666;2023-03-25T07:24:46;97961.06;;;10.23;100.00
55217;BME280;41086;46.736;15.666;2023-03-25T07:27:14;97961.72;;;10.26;100.00
55217;BME280;41086;46.736;15.666;2023-03-25T07:29:50;97973.25;;;10.25;100.00
55217;BME280;41086;46.736;15.666;2023-03-25T07:32:20;97960.72;;;10.16;100.00
55217;BME280;41086;46.736;15.666;2023-03-25T07:34:49;97966.75;;;10.18;100.00
55217;BME280;41086;46.736;15.666;2023-03-25T07:37:18;97982.19;;;10.00;100.00
55217;BME280;41086;46.736;15.666;2023-03-25T07:39:45;97975.34;;;10.09;100.00
55217;BME280;41086;46.736;15.666;2023-03-25T07:42:12;97985.94;;;10.09;100.00
55217;BME280;41086;46.736;15.666;2023-03-25T07:45:00;97972.13;;;10.16;100.00
55217;BME280;41086;46.736;15.666;2023-03-25T07:47:28;97996.03;;;10.28;100.00
55217;BME280;41086;46.736;15.666;2023-03-25T07:49:55;97974.38;;;10.34;100.00
55217;BME280;41086;46.736;15.666;2023-03-25T07:52:22;97962.84;;;10.35;100.00
55217;BME280;41086;46.736;15.666;2023-03-25T07:54:48;97972.72;;;10.44;100.00
55217;BME280;41086;46.736;15.666;2023-03-25T07:57:15;97969.00;;;10.47;100.00
55217;BME280;41086;46.736;15.666;2023-03-25T07:59:42;97987.69;;;10.45;100.00
55217;BME280;41086;46.736;15.666;2023-03-25T08:02:12;97999.56;;;10.39;100.00
55217;BME280;41086;46.736;15.666;2023-03-25T08:04:39;97996.31;;;10.36;100.00
55217;BME280;41086;46.736;15.666;2023-03-25T08:07:06;98003.41;;;10.35;100.00
55217;BME280;41086;46.736;15.666;2023-03-25T08:09:33;98011.34;;;10.35;100.00
55217;BME280;41086;46.736;15.666;2023-03-25T08:12:00;98007.75;;;10.36;100.00
55217;BME280;41086;46.736;15.666;2023-03-25T08:14:28;98000.16;;;10.32;100.00
55217;BME280;41086;46.736;15.666;2023-03-25T08:16:54;98007.75;;;10.36;100.00
55217;BME280;41086;46.736;15.666;2023-03-25T08:19:21;98004.25;;;10.36;100.00
55217;BME280;41086;46.736;15.666;2023-03-25T08:21:48;98007.13;;;10.33;100.00
55217;BME280;41086;46.736;15.666;2023-03-25T08:24:15;98001.34;;;10.28;100.00
55217;BME280;41086;46.736;15.666;2023-03-25T08:26:42;98006.84;;;10.25;100.00
55217;BME280;41086;46.736;15.666;2023-03-25T08:29:09;98009.28;;;10.28;100.00
55217;BME280;41086;46.736;15.666;2023-03-25T08:31:37;98011.69;;;10.31;100.00
55217;BME280;41086;46.736;15.666;2023-03-25T08:34:04;98020.81;;;10.27;100.00
55217;BME280;41086;46.736;15.666;2023-03-25T08:36:31;98029.56;;;10.40;100.00
55217;BME280;41086;46.736;15.666;2023-03-25T08:38:58;98031.13;;;10.42;100.00
55217;BME280;41086;46.736;15.666;2023-03-25T08:41:25;98039.69;;;10.46;100.00
55217;BME280;41086;46.736;15.666;2023-03-25T08:43:51;98046.16;;;10.42;100.00
55217;BME280;41086;46.736;15.666;2023-03-25T08:46:18;98041.09;;;10.39;100.00
55217;BME280;41086;46.736;15.666;2023-03-25T08:48:45;98043.25;;;10.34;100.00
55217;BME280;41086;46.736;15.666;2023-03-25T08:51:15;98044.75;;;10.25;100.00
55217;BME280;41086;46.736;15.666;2023-03-25T08:53:41;98040.41;;;10.24;100.00
55217;BME280;41086;46.736;15.666;2023-03-25T08:56:08;98035.34;;;10.21;100.00
55217;BME280;41086;46.736;15.666;2023-03-25T08:58:36;98043.81;;;10.26;100.00
55217;BME280;41086;46.736;15.666;2023-03-25T09:01:03;98023.53;;;10.14;100.00
55217;BME280;41086;46.736;15.666;2023-03-25T09:03:29;98041.22;;;10.13;100.00
55217;BME280;41086;46.736;15.666;2023-03-25T09:05:56;98040.09;;;10.05;100.00
55217;BME280;41086;46.736;15.666;2023-03-25T09:08:23;98025.41;;;9.88;100.00
55217;BME280;41086;46.736;15.666;2023-03-25T09:10:50;98046.94;;;9.83;100.00
55217;BME280;41086;46.736;15.666;2023-03-25T09:13:17;98046.13;;;9.83;100.00
55217;BME280;41086;46.736;15.666;2023-03-25T09:15:44;98043.78;;;9.78;100.00
55217;BME280;41086;46.736;15.666;2023-03-25T09:18:11;98046.22;;;9.81;100.00
55217;BME280;41086;46.736;15.666;2023-03-25T09:20:38;98053.53;;;9.77;100.00
55217;BME280;41086;46.736;15.666;2023-03-25T09:23:05;98063.91;;;9.81;100.00
55217;BME280;41086;46.736;15.666;2023-03-25T09:25:32;98068.44;;;9.79;100.00
55217;BME280;41086;46.736;15.666;2023-03-25T09:27:59;98088.34;;;9.71;100.00
55217;BME280;41086;46.736;15.666;2023-03-25T09:30:26;98086.75;;;9.69;100.00
55217;BME280;41086;46.736;15.666;2023-03-25T09:32:53;98096.72;;;9.65;100.00
55217;BME280;41086;46.736;15.666;2023-03-25T09:35:20;98088.28;;;9.60;100.00
55217;BME280;41086;46.736;15.666;2023-03-25T09:37:47;98090.41;;;9.55;100.00
55217;BME280;41086;46.736;15.666;2023-03-25T09:40:19;98089.34;;;9.58;100.00
55217;BME280;41086;46.736;15.666;2023-03-25T09:45:44;98114.84;;;9.46;100.00
55217;BME280;41086;46.736;15.666;2023-03-25T09:50:43;98137.81;;;9.45;100.00
55217;BME280;41086;46.736;15.666;2023-03-25T09:55:53;98138.75;;;9.57;100.00
55217;BME280;41086;46.736;15.666;2023-03-25T10:01:11;98120.59;;;9.27;100.00
55217;BME280;41086;46.736;15.666;2023-03-25T10:09:34;98136.97;;;9.32;100.00
55217;BME280;41086;46.736;15.666;2023-03-25T10:12:16;98139.81;;;9.42;100.00
55217;BME280;41086;46.736;15.666;2023-03-25T10:20:43;98145.34;;;9.26;100.00
55217;BME280;41086;46.736;15.666;2023-03-25T10:26:03;98096.25;;;9.22;100.00
55217;BME280;41086;46.736;15.666;2023-03-25T10:28:39;98100.47;;;9.24;100.00
55217;BME280;41086;46.736;15.666;2023-03-25T10:31:15;98086.72;;;9.06;100.00
55217;BME280;41086;46.736;15.666;2023-03-25T10:33:56;98113.81;;;9.23;100.00
55217;BME280;41086;46.736;15.666;2023-03-25T10:36:33;98078.28;;;9.14;100.00
55217;BME280;41086;46.736;15.666;2023-03-25T10:39:03;98084.84;;;9.21;100.00
55217;BME280;41086;46.736;15.666;2023-03-25T10:41:36;98082.41;;;9.18;100.00
55217;BME280;41086;46.736;15.666;2023-03-25T10:44:11;98077.97;;;9.19;100.00
55217;BME280;41086;46.736;15.666;2023-03-25T10:46:56;98087.25;;;9.12;100.00
55217;BME280;41086;46.736;15.666;2023-03-25T10:49:27;98054.81;;;8.97;100.00
55217;BME280;41086;46.736;15.666;2023-03-25T10:51:56;98074.03;;;9.12;100.00
55217;BME280;41086;46.736;15.666;2023-03-25T10:54:30;98073.19;;;9.11;100.00
55217;BME280;41086;46.736;15.666;2023-03-25T10:57:02;98074.91;;;9.12;100.00
55217;BME280;41086;46.736;15.666;2023-03-25T10:59:38;98081.13;;;9.11;100.00
55217;BME280;41086;46.736;15.666;2023-03-25T11:02:21;98073.81;;;9.15;100.00
55217;BME280;41086;46.736;15.666;2023-03-25T11:04:54;98075.31;;;9.19;100.00
55217;BME280;41086;46.736;15.666;2023-03-25T11:07:55;98087.16;;;9.26;100.00
55217;BME280;41086;46.736;15.666;2023-03-25T11:10:25;98012.63;;;8.82;100.00
55217;BME280;41086;46.736;15.666;2023-03-25T11:12:55;98088.31;;;9.35;100.00
55217;BME280;41086;46.736;15.666;2023-03-25T11:15:35;98090.00;;;9.36;100.00
55217;BME280;41086;46.736;15.666;2023-03-25T11:21:02;98087.25;;;9.37;100.00
55217;BME280;41086;46.736;15.666;2023-03-25T11:23:32;98078.06;;;9.43;100.00
55217;BME280;41086;46.736;15.666;2023-03-25T11:28:51;98033.72;;;9.33;100.00
55217;BME280;41086;46.736;15.666;2023-03-25T11:31:22;98015.34;;;9.32;100.00
55217;BME280;41086;46.736;15.666;2023-03-25T11:36:46;98023.09;;;9.59;100.00
55217;BME280;41086;46.736;15.666;2023-03-25T11:39:17;98039.59;;;9.63;100.00
55217;BME280;41086;46.736;15.666;2023-03-25T11:41:44;98035.22;;;9.74;100.00
55217;BME280;41086;46.736;15.666;2023-03-25T11:44:29;98039.09;;;9.82;100.00
55217;BME280;41086;46.736;15.666;2023-03-25T11:47:05;98051.06;;;9.87;100.00
55217;BME280;41086;46.736;15.666;2023-03-25T11:49:35;98055.78;;;9.95;100.00
55217;BME280;41086;46.736;15.666;2023-03-25T11:52:07;98059.47;;;10.05;100.00
55217;BME280;41086;46.736;15.666;2023-03-25T11:54:35;98058.28;;;10.09;100.00
55217;BME280;41086;46.736;15.666;2023-03-25T11:57:05;98052.66;;;10.14;100.00
55217;BME280;41086;46.736;15.666;2023-03-25T11:59:38;98054.34;;;9.91;100.00
55217;BME280;41086;46.736;15.666;2023-03-25T12:02:35;98055.84;;;10.06;100.00
55217;BME280;41086;46.736;15.666;2023-03-25T12:05:11;98050.09;;;10.12;100.00
55217;BME280;41086;46.736;15.666;2023-03-25T12:07:47;98032.44;;;10.13;100.00
55217;BME280;41086;46.736;15.666;2023-03-25T12:13:20;98027.66;;;10.18;100.00
55217;BME280;41086;46.736;15.666;2023-03-25T12:22:12;98036.81;;;10.49;100.00
55217;BME280;41086;46.736;15.666;2023-03-25T12:24:57;98030.16;;;10.43;100.00
55217;BME280;41086;46.736;15.666;2023-03-25T12:35:48;98020.94;;;10.60;100.00
55217;BME280;41086;46.736;15.666;2023-03-25T12:41:39;98028.88;;;10.60;100.00
55217;BME280;41086;46.736;15.666;2023-03-25T12:46:50;98009.28;;;10.74;100.00
55217;BME280;41086;46.736;15.666;2023-03-25T12:49:28;98019.06;;;10.85;100.00
55217;BME280;41086;46.736;15.666;2023-03-25T12:52:07;97997.97;;;10.72;100.00
55217;BME280;41086;46.736;15.666;2023-03-25T12:55:14;98001.72;;;10.70;100.00
55217;BME280;41086;46.736;15.666;2023-03-25T13:09:03;97991.22;;;10.68;100.00
55217;BME280;41086;46.736;15.666;2023-03-25T13:11:53;97995.69;;;10.79;100.00
55217;BME280;41086;46.736;15.666;2023-03-25T13:14:38;97990.88;;;10.73;100.00
55217;BME280;41086;46.736;15.666;2023-03-25T13:17:11;97989.91;;;10.85;100.00
55217;BME280;41086;46.736;15.666;2023-03-25T13:19:43;97994.13;;;10.87;100.00
55217;BME280;41086;46.736;15.666;2023-03-25T13:22:30;97995.44;;;10.93;100.00
55217;BME280;41086;46.736;15.666;2023-03-25T13:25:06;97993.19;;;11.00;100.00
55217;BME280;41086;46.736;15.666;2023-03-25T13:27:40;97991.72;;;11.07;100.00
55217;BME280;41086;46.736;15.666;2023-03-25T13:30:27;97987.38;;;11.17;100.00
55217;BME280;41086;46.736;15.666;2023-03-25T13:33:05;97990.13;;;11.49;100.00
55217;BME280;41086;46.736;15.666;2023-03-25T13:38:31;97989.13;;;11.73;100.00
55217;BME280;41086;46.736;15.666;2023-03-25T13:41:15;97984.31;;;11.89;100.00
55217;BME280;41086;46.736;15.666;2023-03-25T13:46:42;97993.47;;;12.17;100.00
55217;BME280;41086;46.736;15.666;2023-03-25T13:49:17;97984.97;;;12.03;100.00
55217;BME280;41086;46.736;15.666;2023-03-25T13:51:46;97987.44;;;11.94;100.00
55217;BME280;41086;46.736;15.666;2023-03-25T14:00:17;97966.16;;;13.80;100.00
55217;BME280;41086;46.736;15.666;2023-03-25T14:13:48;97937.66;;;15.15;85.53
55217;BME280;41086;46.736;15.666;2023-03-25T14:16:22;97934.78;;;15.82;95.47
55217;BME280;41086;46.736;15.666;2023-03-25T14:18:58;97929.34;;;16.27;89.13
55217;BME280;41086;46.736;15.666;2023-03-25T14:21:32;97927.75;;;16.16;77.96
55217;BME280;41086;46.736;15.666;2023-03-25T14:24:21;97922.09;;;15.38;73.15
55217;BME280;41086;46.736;15.666;2023-03-25T14:26:54;97935.63;;;15.27;76.36
55217;BME280;41086;46.736;15.666;2023-03-25T14:29:44;97933.69;;;15.19;79.93
55217;BME280;41086;46.736;15.666;2023-03-25T14:34:44;97928.22;;;15.76;75.12
55217;BME280;41086;46.736;15.666;2023-03-25T14:39:53;97924.53;;;15.49;67.32
55217;BME280;41086;46.736;15.666;2023-03-25T14:42:23;97904.78;;;15.42;75.15
55217;BME280;41086;46.736;15.666;2023-03-25T14:44:52;97913.88;;;15.95;72.38
55217;BME280;41086;46.736;15.666;2023-03-25T14:47:29;97915.78;;;16.47;75.77
55217;BME280;41086;46.736;15.666;2023-03-25T14:52:51;97907.72;;;17.25;71.41
55217;BME280;41086;46.736;15.666;2023-03-25T14:55:26;97904.00;;;17.60;68.40
55217;BME280;41086;46.736;15.666;2023-03-25T14:57:59;97900.59;;;18.01;66.37
55217;BME280;41086;46.736;15.666;2023-03-25T15:00:30;97898.44;;;17.45;62.25
55217;BME280;41086;46.736;15.666;2023-03-25T15:03:07;97897.19;;;16.63;60.57
55217;BME280;41086;46.736;15.666;2023-03-25T15:05:36;97890.56;;;16.75;60.29
55217;BME280;41086;46.736;15.666;2023-03-25T15:08:24;97888.88;;;17.35;60.50
55217;BME280;41086;46.736;15.666;2023-03-25T15:11:13;97875.28;;;16.86;59.01
55217;BME280;41086;46.736;15.666;2023-03-25T15:13:43;97885.84;;;16.95;55.38
55217;BME280;41086;46.736;15.666;2023-03-25T15:16:34;97888.97;;;16.82;57.16